Terminal Aerodrome Forecast
Issued by NWS

Home | Current Version | Previous Version | Text Only | Print | Product List | Glossary On
Versions: 1 2 3 4 5 6 7 8 9 10 11 12 13
000
FTUS45 KABQ 302300
TAFLVS
TAF
KLVS 302327Z 3100/3124 28015G22KT P6SM SCT100 BKN200
     FM310300 VRB06KT P6SM FEW120 SCT200
     FM310700 03006KT P6SM SCT200
     FM311300 13006KT P6SM SCT200
     FM311800 21013KT P6SM SCT100 SCT200=

USA.gov is the U.S. government's official web portal to all federal, state and local government web resources and services.